Portada
METAR-TAF:

METAR-TAF

Aeroports :

Springfield-Branson Regional Airport

Springfield, Missouri, Estats Units d'Amèrica

latitud: 37-14-23N, longitud: 093-23-23W, altitud: 386 m

Observació

L'informe es va fer fa 24 minuts, a les 11:52 UTC
Vent calma
Temperatura 13°C
Humitat 94%
Pressió 1023 hPa
Visibilitat: 16.1 km
Cel clar

METAR: KSGF 301152Z 00000KT 10SM CLR 13/12 A3022 RMK AO2 SLP226 T01280117 10139 20106 53012

Hora: 07:16 (12:16 UTC)

Pronòstic

L'informe es va fer fa 56 minuts, a les 11:20 UTC
Pronòstic vàlid del 30 a les 12 UTC al 31 a les 12 UTC
Vent 5 kt amb direcció variable
Visibilitat: 10 km
Cel clar

TAF: KSGF 301120Z 3012/3112 VRB05KT P6SM SKC

Observacions i pronòstics meteorològics de més de 4000 aeroports (METAR i TAF).

Les estacions disponibles són els punts grocs i vermells al mapa.

Posi el ratolí al punt desitjat per veure el nom de l'estació.

Feu clic per veure les observacions i els pronòstics meteorològics.

Per canviar el mapa: feu clic els botons verds amb una creu de color negre per apropar; al botó verd amb un guió per allunyar la imatge; o en les fletxes verdes per a mapes adjacents.


METAR-TAF: